Vernon, Canada
Current Conditions -  °F | °C
As of 12:54 AM on Wednesday 26 Nov 2014 (Local Time) from CYLW Reporting Station
Light Snow Light Snow  
Wind Chill: 26°   Ceiling: 1100
Heat Index: 32°   Visibility: 2.2mi
Dew Point: 32°   Wind: 7mph
Humidity: 100%   Direction: 360°N
Pressure: 30.2"   Gusts: NA
Location:  50.27°N, 119.27°W
Report Text: CYLW 260854Z AUTO 36006KT 2 1/4SM -SN FEW008 OVC011 00/00 A3020 RMK VIS VRB 1 1/4-3 ICG SLP244
Loading
Personal Weather Stations






























Interactive Weather Map New forecast layout! Learn more

10-Day Weather Forecast

Advertisements
Track Severe Weather on mobile